Bismarck, North Dakota
Current Conditions -  °F | °C
As of 6:52 AM on Saturday 25 Oct 2014 (Local Time) from KBIS Reporting Station
Clear Clear  
Wind Chill: 41°   Ceiling: Unl
Heat Index: 41°   Visibility: 10mi
Dew Point: 32°   Wind: 0mph
Humidity: 70%   Direction: NA
Pressure: 30.12"   Gusts: NA
Location:  46.81°N, 100.77°W
Report Text: KBIS 251152Z AUTO 00000KT 10SM CLR 05/00 A3012 RMK AO2 SLP206 T00500000 10094 20039 53007
Loading
Personal Weather Stations






























Interactive Weather Map
Tropical Storm Tracking
New forecast layout! Learn more

10-Day Weather Forecast

Advertisements
Track Severe Weather on mobile